createdAt,value
2022-11-29T00:01:23.870Z,100381.97
2022-11-29T00:03:52.177Z,100377.28
2022-11-29T00:06:21.692Z,100378.91
2022-11-29T00:08:49.869Z,100383.00
2022-11-29T00:11:19.215Z,100380.34
2022-11-29T00:13:47.133Z,100373.94
2022-11-29T00:16:16.131Z,100387.97
2022-11-29T00:18:44.014Z,100387.13
2022-11-29T00:21:11.131Z,100388.94
2022-11-29T00:23:39.298Z,100389.91
2022-11-29T00:26:08.651Z,100385.31
2022-11-29T00:28:37.445Z,100384.47
2022-11-29T00:31:16.276Z,100388.94
2022-11-29T00:33:44.133Z,100385.78
2022-11-29T00:36:11.985Z,100386.41
2022-11-29T00:38:41.483Z,100386.88
2022-11-29T00:41:09.570Z,100380.84
2022-11-29T00:43:38.579Z,100381.09
2022-11-29T00:46:06.481Z,100383.13
2022-11-29T00:48:36.734Z,100386.41
2022-11-29T00:51:05.725Z,100386.63
2022-11-29T00:53:35.061Z,100379.38
2022-11-29T00:56:03.053Z,100380.59
2022-11-29T00:58:31.376Z,100379.75
2022-11-29T01:00:58.941Z,100386.50
2022-11-29T01:03:26.806Z,100380.84
2022-11-29T01:06:00.977Z,100376.72
2022-11-29T01:08:29.211Z,100376.72
2022-11-29T01:11:04.847Z,100384.47
2022-11-29T01:13:32.952Z,100388.22
2022-11-29T01:16:00.337Z,100381.06
2022-11-29T01:18:28.725Z,100382.66
2022-11-29T01:20:59.137Z,100385.44
2022-11-29T01:23:27.281Z,100382.78
2022-11-29T01:26:04.257Z,100380.81
2022-11-29T01:28:33.031Z,100376.50
2022-11-29T01:31:04.923Z,100378.31
2022-11-29T01:33:33.170Z,100381.44
2022-11-29T01:36:02.845Z,100382.41
2022-11-29T01:38:31.334Z,100377.56
2022-11-29T01:41:01.796Z,100376.84
2022-11-29T01:43:30.371Z,100373.34
2022-11-29T01:45:58.059Z,100380.59
2022-11-29T01:48:30.732Z,100379.50
2022-11-29T01:51:01.574Z,100381.81
2022-11-29T01:53:29.577Z,100376.34
2022-11-29T01:56:03.712Z,100380.09
2022-11-29T01:58:32.098Z,100377.94
2022-11-29T02:01:01.175Z,100378.66
2022-11-29T02:03:29.210Z,100377.69
2022-11-29T02:05:56.825Z,100381.69
2022-11-29T02:08:31.825Z,100379.28
2022-11-29T02:11:30.939Z,100384.94
2022-11-29T02:14:10.855Z,100372.88
2022-11-29T02:16:47.723Z,100379.75
2022-11-29T02:19:35.059Z,100382.16
2022-11-29T02:22:08.192Z,100382.66
2022-11-29T02:25:23.249Z,100387.13
2022-11-29T02:28:41.058Z,100387.22
2022-11-29T02:32:00.116Z,100384.09
2022-11-29T02:34:52.181Z,100385.44
2022-11-29T02:37:41.953Z,100385.78
2022-11-29T02:40:33.642Z,100386.88
2022-11-29T02:43:43.267Z,100379.50
2022-11-29T02:46:27.152Z,100385.06
2022-11-29T02:49:03.781Z,100397.16
2022-11-29T02:51:42.073Z,100396.66
2022-11-29T02:54:16.377Z,100403.19
2022-11-29T02:56:51.346Z,100397.53
2022-11-29T02:59:34.093Z,100398.59
2022-11-29T03:02:12.961Z,100394.13
2022-11-29T03:04:47.688Z,100396.41
2022-11-29T03:07:27.447Z,100403.81
2022-11-29T03:10:00.955Z,100408.16
2022-11-29T03:12:37.831Z,100403.81
2022-11-29T03:15:19.502Z,100407.06
2022-11-29T03:17:57.673Z,100411.78
2022-11-29T03:20:37.718Z,100409.47
2022-11-29T03:23:23.192Z,100408.03
2022-11-29T03:25:57.704Z,100413.22
2022-11-29T03:28:31.526Z,100415.63
2022-11-29T03:31:06.964Z,100419.97
2022-11-29T03:33:43.201Z,100418.66
2022-11-29T03:36:18.947Z,100416.59
2022-11-29T03:38:48.782Z,100421.56
2022-11-29T03:41:23.117Z,100417.56
2022-11-29T03:43:57.444Z,100418.78
2022-11-29T03:46:32.079Z,100419.13
2022-11-29T03:49:03.836Z,100416.97
2022-11-29T03:51:44.554Z,100413.81
2022-11-29T03:54:16.684Z,100419.88
2022-11-29T03:56:45.201Z,100419.38
2022-11-29T03:59:26.322Z,100424.81
2022-11-29T04:02:11.034Z,100421.19
2022-11-29T04:05:22.238Z,100424.66
2022-11-29T04:08:13.376Z,100417.78
2022-11-29T04:11:23.087Z,100421.25
2022-11-29T04:14:26.674Z,100423.66
2022-11-29T04:17:35.550Z,100421.97
2022-11-29T04:20:41.104Z,100432.34
2022-11-29T04:23:38.800Z,100427.06
2022-11-29T04:26:33.545Z,100433.13
2022-11-29T04:29:29.944Z,100437.97
2022-11-29T04:32:20.439Z,100445.59
2022-11-29T04:35:23.417Z,100453.09
2022-11-29T04:38:09.770Z,100446.44
2022-11-29T04:40:55.619Z,100450.28
2022-11-29T04:43:47.303Z,100446.44
2022-11-29T04:46:40.865Z,100446.91
2022-11-29T04:49:26.069Z,100443.75
2022-11-29T04:52:12.000Z,100442.44
2022-11-29T04:54:46.162Z,100451.25
2022-11-29T04:57:24.431Z,100453.34
2022-11-29T05:00:00.306Z,100454.19
2022-11-29T05:02:36.922Z,100449.09
2022-11-29T05:05:18.538Z,100454.88
2022-11-29T05:07:53.685Z,100458.66
2022-11-29T05:10:29.168Z,100462.63
2022-11-29T05:13:06.243Z,100459.84
2022-11-29T05:16:12.519Z,100455.13
2022-11-29T05:18:58.136Z,100461.75
2022-11-29T05:21:37.280Z,100468.06
2022-11-29T05:24:17.556Z,100466.00
2022-11-29T05:26:53.142Z,100467.19
2022-11-29T05:29:28.634Z,100467.69
2022-11-29T05:32:14.231Z,100471.94
2022-11-29T05:35:03.119Z,100480.16
2022-11-29T05:37:44.208Z,100472.69
2022-11-29T05:40:36.345Z,100470.63
2022-11-29T05:43:14.978Z,100478.72
2022-11-29T05:45:48.181Z,100478.47
2022-11-29T05:48:26.684Z,100481.63
2022-11-29T05:51:05.500Z,100478.38
2022-11-29T05:53:40.929Z,100485.13
2022-11-29T05:56:15.916Z,100486.69
2022-11-29T05:58:50.428Z,100491.88
2022-11-29T06:01:22.981Z,100496.00
2022-11-29T06:04:04.434Z,100496.63
2022-11-29T06:06:40.386Z,100504.09
2022-11-29T06:09:15.649Z,100504.09
2022-11-29T06:11:46.163Z,100502.53
2022-11-29T06:14:25.215Z,100502.28
2022-11-29T06:17:12.097Z,100508.56
2022-11-29T06:20:07.446Z,100510.16
2022-11-29T06:22:58.150Z,100509.28
2022-11-29T06:25:43.554Z,100516.22
2022-11-29T06:28:24.690Z,100514.50
2022-11-29T06:30:58.010Z,100519.34
2022-11-29T06:33:31.752Z,100508.22
2022-11-29T06:36:11.991Z,100522.72
2022-11-29T06:38:39.689Z,100520.19
2022-11-29T06:41:16.423Z,100520.78
2022-11-29T06:43:44.352Z,100524.91
2022-11-29T06:46:20.940Z,100523.44
2022-11-29T06:48:56.571Z,100536.41
2022-11-29T06:51:36.321Z,100530.22
2022-11-29T06:54:19.534Z,100536.75
2022-11-29T06:56:56.276Z,100534.06
2022-11-29T06:59:37.421Z,100532.75
2022-11-29T07:02:24.346Z,100543.75
2022-11-29T07:05:03.452Z,100537.13
2022-11-29T07:07:34.253Z,100544.25
2022-11-29T07:10:04.322Z,100542.81
2022-11-29T07:12:32.988Z,100536.84
2022-11-29T07:15:00.970Z,100539.91
2022-11-29T07:17:37.440Z,100541.84
2022-11-29T07:20:15.920Z,100538.09
2022-11-29T07:23:01.109Z,100540.63
2022-11-29T07:25:38.571Z,100541.00
2022-11-29T07:28:19.337Z,100551.50
2022-11-29T07:30:53.593Z,100547.97
2022-11-29T07:33:31.876Z,100545.31
2022-11-29T07:36:11.747Z,100546.53
2022-11-29T07:38:55.999Z,100555.00
2022-11-29T07:41:31.086Z,100549.81
2022-11-29T07:44:08.008Z,100553.53
2022-11-29T07:46:35.450Z,100551.50
2022-11-29T07:49:03.141Z,100565.03
2022-11-29T07:51:32.110Z,100562.63
2022-11-29T07:54:01.425Z,100560.44
2022-11-29T07:56:28.930Z,100565.25
2022-11-29T07:58:56.699Z,100563.47
2022-11-29T08:01:24.267Z,100571.44
2022-11-29T08:03:52.105Z,100565.38
2022-11-29T08:06:24.833Z,100568.91
2022-11-29T08:08:52.766Z,100567.94
2022-11-29T08:11:21.390Z,100572.28
2022-11-29T08:13:49.501Z,100574.13
2022-11-29T08:16:17.376Z,100570.25
2022-11-29T08:18:45.395Z,100583.91
2022-11-29T08:21:12.627Z,100579.16
2022-11-29T08:23:40.688Z,100579.91
2022-11-29T08:26:08.024Z,100583.19
2022-11-29T08:28:37.198Z,100581.47
2022-11-29T08:31:06.737Z,100581.91
2022-11-29T08:33:35.740Z,100577.56
2022-11-29T08:36:06.427Z,100583.28
2022-11-29T08:38:34.513Z,100574.66
2022-11-29T08:41:01.930Z,100577.53
2022-11-29T08:43:29.965Z,100576.09
2022-11-29T08:45:58.849Z,100581.22
2022-11-29T08:48:26.922Z,100576.84
2022-11-29T08:50:56.083Z,100582.28
2022-11-29T08:53:24.797Z,100597.56
2022-11-29T08:55:52.378Z,100596.22
2022-11-29T08:58:20.255Z,100599.00
2022-11-29T09:00:47.580Z,100599.84
2022-11-29T09:03:17.022Z,100593.53
2022-11-29T09:05:44.517Z,100596.44
2022-11-29T09:08:12.570Z,100601.34
2022-11-29T09:10:41.103Z,100609.25
2022-11-29T09:13:10.006Z,100600.81
2022-11-29T09:15:37.635Z,100597.47
2022-11-29T09:18:06.016Z,100605.34
2022-11-29T09:20:34.854Z,100606.69
2022-11-29T09:23:03.015Z,100610.72
2022-11-29T09:25:30.495Z,100616.28
2022-11-29T09:27:58.798Z,100608.75
2022-11-29T09:30:26.178Z,100611.34
2022-11-29T09:32:54.003Z,100602.72
2022-11-29T09:35:21.447Z,100599.94
2022-11-29T09:37:51.496Z,100598.06
2022-11-29T09:40:21.913Z,100606.94
2022-11-29T09:43:00.606Z,100602.34
2022-11-29T09:45:34.485Z,100602.16
2022-11-29T09:48:22.309Z,100602.63
2022-11-29T09:50:54.126Z,100594.63
2022-11-29T09:53:38.534Z,100600.72
2022-11-29T09:56:16.645Z,100609.16
2022-11-29T09:58:49.642Z,100606.00
2022-11-29T10:01:23.190Z,100598.41
2022-11-29T10:03:54.318Z,100600.63
2022-11-29T10:06:25.459Z,100596.88
2022-11-29T10:08:59.508Z,100606.31
2022-11-29T10:11:32.025Z,100603.31
2022-11-29T10:14:06.151Z,100599.16
2022-11-29T10:16:41.930Z,100593.19
2022-11-29T10:19:18.929Z,100604.06
2022-11-29T10:21:55.226Z,100607.28
2022-11-29T10:24:27.073Z,100610.47
2022-11-29T10:26:54.414Z,100600.97
2022-11-29T10:29:23.527Z,100605.13
2022-11-29T10:31:51.073Z,100608.38
2022-11-29T10:34:21.615Z,100605.06
2022-11-29T10:36:52.110Z,100605.72
2022-11-29T10:39:24.618Z,100605.00
2022-11-29T10:41:56.488Z,100598.25
2022-11-29T10:44:25.406Z,100612.03
2022-11-29T10:46:53.625Z,100601.19
2022-11-29T10:49:28.081Z,100599.09
2022-11-29T10:51:55.446Z,100595.66
2022-11-29T10:54:37.805Z,100596.06
2022-11-29T10:57:13.097Z,100596.22
2022-11-29T10:59:41.557Z,100599.78
2022-11-29T11:02:18.226Z,100596.41
2022-11-29T11:04:47.803Z,100596.28
2022-11-29T11:07:23.914Z,100597.66
2022-11-29T11:09:55.581Z,100595.84
2022-11-29T11:12:27.298Z,100595.09
2022-11-29T11:15:14.837Z,100594.88
2022-11-29T11:17:55.719Z,100589.19
2022-11-29T11:20:25.267Z,100592.22
2022-11-29T11:22:58.396Z,100593.13
2022-11-29T11:25:28.990Z,100597.63
2022-11-29T11:28:10.621Z,100601.81
2022-11-29T11:30:39.053Z,100596.00
2022-11-29T11:33:07.929Z,100591.66
2022-11-29T11:35:36.217Z,100588.19
2022-11-29T11:38:03.601Z,100590.72
2022-11-29T11:40:31.824Z,100587.41
2022-11-29T11:43:02.214Z,100590.25
2022-11-29T11:45:35.167Z,100597.19
2022-11-29T11:48:05.481Z,100596.69
2022-11-29T11:50:37.639Z,100599.78
2022-11-29T11:53:07.920Z,100600.84
2022-11-29T11:55:39.646Z,100598.03
2022-11-29T11:58:21.962Z,100596.50
2022-11-29T12:01:08.651Z,100611.75
2022-11-29T12:03:44.155Z,100609.13
2022-11-29T12:06:27.152Z,100619.34
2022-11-29T12:08:59.353Z,100615.88
2022-11-29T12:11:27.423Z,100619.00
2022-11-29T12:13:58.676Z,100615.19
2022-11-29T12:16:31.727Z,100615.03
2022-11-29T12:19:04.374Z,100621.91
2022-11-29T12:21:37.561Z,100628.13
2022-11-29T12:24:09.324Z,100623.13
2022-11-29T12:29:30.136Z,100615.47
2022-11-29T12:32:09.292Z,100620.22
2022-11-29T12:34:51.286Z,100622.88
2022-11-29T12:37:25.360Z,100613.88
2022-11-29T12:39:59.965Z,100614.16
2022-11-29T12:42:46.810Z,100614.59
2022-11-29T12:45:30.084Z,100615.34
2022-11-29T12:48:09.787Z,100624.63
2022-11-29T12:50:45.617Z,100621.53
2022-11-29T12:53:33.657Z,100621.84
2022-11-29T12:56:13.902Z,100620.00
2022-11-29T12:58:53.772Z,100631.94
2022-11-29T13:01:30.760Z,100634.63
2022-11-29T13:04:09.788Z,100632.50
2022-11-29T13:06:44.803Z,100634.50
2022-11-29T13:09:26.808Z,100637.16
2022-11-29T13:11:58.470Z,100635.91
2022-11-29T13:14:48.241Z,100644.19
2022-11-29T13:17:27.974Z,100638.28
2022-11-29T13:19:58.324Z,100641.66
2022-11-29T13:22:32.469Z,100648.97
2022-11-29T13:25:04.357Z,100637.69
2022-11-29T13:27:35.483Z,100637.56
2022-11-29T13:30:04.634Z,100645.44
2022-11-29T13:32:35.399Z,100647.81
2022-11-29T13:35:12.674Z,100650.50
2022-11-29T13:37:53.514Z,100649.53
2022-11-29T13:40:35.087Z,100644.03
2022-11-29T13:43:12.180Z,100646.00
2022-11-29T13:45:46.645Z,100655.72
2022-11-29T13:48:34.251Z,100655.13
2022-11-29T13:51:34.076Z,100661.59
2022-11-29T13:54:03.410Z,100661.19
2022-11-29T13:56:35.638Z,100666.69
2022-11-29T13:59:07.982Z,100675.72
2022-11-29T14:01:47.221Z,100678.25
2022-11-29T14:04:37.735Z,100676.56
2022-11-29T14:07:09.934Z,100677.81
2022-11-29T14:09:57.082Z,100685.00
2022-11-29T14:12:35.586Z,100683.88
2022-11-29T14:15:15.489Z,100685.44
2022-11-29T14:17:50.786Z,100685.28
2022-11-29T14:20:55.808Z,100689.63
2022-11-29T14:23:35.416Z,100689.34
2022-11-29T14:26:28.768Z,100691.47
2022-11-29T14:28:58.285Z,100694.03
2022-11-29T14:31:55.020Z,100690.81
2022-11-29T14:34:38.379Z,100697.31
2022-11-29T14:37:35.653Z,100698.41
2022-11-29T14:40:17.008Z,100697.31
2022-11-29T14:42:47.449Z,100703.38
2022-11-29T14:45:23.747Z,100699.00
2022-11-29T14:47:51.895Z,100699.41
2022-11-29T14:50:31.261Z,100700.16
2022-11-29T14:53:00.095Z,100703.53
2022-11-29T14:55:35.331Z,100708.13
2022-11-29T14:58:16.783Z,100716.34
2022-11-29T15:01:10.727Z,100713.81
2022-11-29T15:03:48.540Z,100714.16
2022-11-29T15:06:26.130Z,100717.63
2022-11-29T15:09:04.480Z,100718.78
2022-11-29T15:11:43.317Z,100716.97
2022-11-29T15:14:18.969Z,100720.63
2022-11-29T15:17:04.731Z,100725.94
2022-11-29T15:19:57.681Z,100720.19
2022-11-29T15:22:28.149Z,100723.47
2022-11-29T15:25:00.548Z,100725.34
2022-11-29T15:27:29.329Z,100726.59
2022-11-29T15:29:56.712Z,100729.16
2022-11-29T15:32:26.203Z,100732.34
2022-11-29T15:34:55.268Z,100729.66
2022-11-29T15:37:41.249Z,100731.09
2022-11-29T15:40:15.018Z,100736.25
2022-11-29T15:42:45.184Z,100737.94
2022-11-29T15:45:27.339Z,100737.09
2022-11-29T15:47:55.909Z,100739.88
2022-11-29T15:50:25.721Z,100743.16
2022-11-29T15:53:06.053Z,100739.69
2022-11-29T15:55:35.407Z,100741.19
2022-11-29T15:58:08.707Z,100742.50
2022-11-29T16:00:36.848Z,100751.69
2022-11-29T16:03:06.448Z,100744.06
2022-11-29T16:05:37.002Z,100748.47
2022-11-29T16:08:12.335Z,100746.72
2022-11-29T16:10:44.140Z,100748.69
2022-11-29T16:13:32.199Z,100747.75
2022-11-29T16:16:06.083Z,100744.78
2022-11-29T16:18:34.195Z,100755.06
2022-11-29T16:21:03.527Z,100757.72
2022-11-29T16:23:36.453Z,100759.28
2022-11-29T16:26:15.087Z,100747.72
2022-11-29T16:28:45.488Z,100761.53
2022-11-29T16:31:18.078Z,100751.72
2022-11-29T16:33:47.252Z,100755.00
2022-11-29T16:36:17.855Z,100758.47
2022-11-29T16:38:47.087Z,100762.97
2022-11-29T16:41:25.145Z,100755.19
2022-11-29T16:43:54.599Z,100765.50
2022-11-29T16:46:34.431Z,100762.56
2022-11-29T16:49:24.671Z,100770.59
2022-11-29T16:51:53.992Z,100771.69
2022-11-29T16:54:23.969Z,100774.94
2022-11-29T16:56:54.424Z,100780.22
2022-11-29T16:59:27.519Z,100776.22
2022-11-29T17:01:56.243Z,100776.22
2022-11-29T17:04:24.868Z,100777.34
2022-11-29T17:06:53.910Z,100781.97
2022-11-29T17:09:26.789Z,100789.84
2022-11-29T17:11:56.786Z,100792.06
2022-11-29T17:14:24.606Z,100789.03
2022-11-29T17:16:52.106Z,100792.19
2022-11-29T17:19:23.514Z,100793.03
2022-11-29T17:21:51.665Z,100798.00
2022-11-29T17:24:20.750Z,100792.81
2022-11-29T17:26:48.123Z,100789.19
2022-11-29T17:29:18.349Z,100794.41
2022-11-29T17:31:46.879Z,100788.59
2022-11-29T17:34:14.723Z,100792.84
2022-11-29T17:36:42.605Z,100801.09
2022-11-29T17:39:10.440Z,100800.25
2022-11-29T17:41:37.899Z,100802.41
2022-11-29T17:44:06.167Z,100807.41
2022-11-29T17:46:37.136Z,100811.75
2022-11-29T17:49:06.758Z,100811.03
2022-11-29T17:51:52.738Z,100812.84
2022-11-29T17:54:22.042Z,100808.97
2022-11-29T17:56:49.753Z,100817.69
2022-11-29T17:59:18.111Z,100812.50
2022-11-29T18:01:47.472Z,100812.13
2022-11-29T18:04:15.584Z,100817.09
2022-11-29T18:06:43.074Z,100811.38
2022-11-29T18:09:11.514Z,100820.72
2022-11-29T18:11:48.013Z,100819.63
2022-11-29T18:14:18.839Z,100824.00
2022-11-29T18:16:48.048Z,100828.47
2022-11-29T18:19:18.186Z,100826.56
2022-11-29T18:21:45.726Z,100826.56
2022-11-29T18:24:13.932Z,100822.41
2022-11-29T18:26:41.720Z,100834.03
2022-11-29T18:29:10.161Z,100841.78
2022-11-29T18:31:39.672Z,100836.56
2022-11-29T18:34:10.512Z,100838.25
2022-11-29T18:36:40.155Z,100835.47
2022-11-29T18:39:10.318Z,100830.84
2022-11-29T18:41:38.250Z,100834.97
2022-11-29T18:44:09.255Z,100831.94
2022-11-29T18:46:38.410Z,100830.88
2022-11-29T18:49:09.335Z,100832.66
2022-11-29T18:51:38.099Z,100840.28
2022-11-29T18:54:06.620Z,100839.72
2022-11-29T18:56:36.374Z,100843.56
2022-11-29T18:59:07.205Z,100843.31
2022-11-29T19:01:35.645Z,100855.81
2022-11-29T19:04:03.845Z,100856.91
2022-11-29T19:06:39.331Z,100852.31
2022-11-29T19:09:12.064Z,100862.13
2022-11-29T19:11:39.841Z,100859.06
2022-11-29T19:14:09.854Z,100857.41
2022-11-29T19:16:38.225Z,100855.00
2022-11-29T19:19:06.218Z,100863.00
2022-11-29T19:21:35.434Z,100870.13
2022-11-29T19:24:05.060Z,100868.06
2022-11-29T19:26:33.075Z,100865.69
2022-11-29T19:29:01.771Z,100869.31
2022-11-29T19:31:29.524Z,100873.06
2022-11-29T19:33:58.001Z,100872.81
2022-11-29T19:36:27.240Z,100870.97
2022-11-29T19:38:57.458Z,100878.84
2022-11-29T19:41:27.421Z,100871.56
2022-11-29T19:43:56.760Z,100874.31
2022-11-29T19:46:26.123Z,100878.44
2022-11-29T19:48:55.343Z,100882.72
2022-11-29T19:51:23.948Z,100877.25
2022-11-29T19:53:57.990Z,100887.97
2022-11-29T19:56:25.615Z,100888.84
2022-11-29T19:58:53.810Z,100885.44
2022-11-29T20:01:22.950Z,100890.50
2022-11-29T20:03:52.174Z,100887.78
2022-11-29T20:06:19.774Z,100886.69
2022-11-29T20:08:48.196Z,100883.25
2022-11-29T20:11:19.775Z,100882.59
2022-11-29T20:13:54.793Z,100884.59
2022-11-29T20:16:22.469Z,100890.50
2022-11-29T20:18:51.662Z,100891.00
2022-11-29T20:21:20.901Z,100888.25
2022-11-29T20:23:49.828Z,100891.25
2022-11-29T20:26:20.249Z,100897.06
2022-11-29T20:28:49.326Z,100888.88
2022-11-29T20:31:19.249Z,100892.44
2022-11-29T20:33:47.612Z,100885.25
2022-11-29T20:36:31.858Z,100892.56
2022-11-29T20:39:11.730Z,100893.16
2022-11-29T20:41:48.617Z,100900.41
2022-11-29T20:44:20.562Z,100898.41
2022-11-29T20:46:48.261Z,100899.72
2022-11-29T20:49:16.693Z,100902.25
2022-11-29T20:51:51.651Z,100908.75
2022-11-29T20:54:20.374Z,100909.06
2022-11-29T20:56:49.288Z,100908.75
2022-11-29T20:59:17.462Z,100908.63
2022-11-29T21:01:45.252Z,100911.81
2022-11-29T21:04:13.391Z,100909.50
2022-11-29T21:06:40.927Z,100916.16
2022-11-29T21:09:08.655Z,100912.41
2022-11-29T21:11:36.581Z,100916.19
2022-11-29T21:14:08.396Z,100914.06
2022-11-29T21:16:36.192Z,100920.94
2022-11-29T21:19:04.900Z,100925.94
2022-11-29T21:21:40.778Z,100921.69
2022-11-29T21:24:16.845Z,100924.56
2022-11-29T21:26:50.915Z,100931.47
2022-11-29T21:29:22.078Z,100929.25
2022-11-29T21:31:51.917Z,100926.59
2022-11-29T21:34:20.626Z,100935.50
2022-11-29T21:36:53.300Z,100933.00
2022-11-29T21:39:21.294Z,100942.06
2022-11-29T21:41:48.882Z,100955.63
2022-11-29T21:44:17.083Z,100945.28
2022-11-29T21:46:45.876Z,100948.72
2022-11-29T21:49:13.767Z,100944.09
2022-11-29T21:51:41.211Z,100945.03
2022-11-29T21:54:09.474Z,100951.38
2022-11-29T21:56:37.090Z,100943.91
2022-11-29T21:59:05.974Z,100952.03
2022-11-29T22:01:33.653Z,100940.97
2022-11-29T22:04:03.750Z,100946.75
2022-11-29T22:06:31.837Z,100938.13
2022-11-29T22:09:00.280Z,100939.44
2022-11-29T22:11:27.794Z,100932.00
2022-11-29T22:13:56.769Z,100945.91
2022-11-29T22:16:25.078Z,100943.72
2022-11-29T22:18:53.409Z,100948.56
2022-11-29T22:21:22.663Z,100943.81
2022-11-29T22:23:52.291Z,100947.69
2022-11-29T22:26:19.929Z,100949.50
2022-11-29T22:28:47.872Z,100951.84
2022-11-29T22:31:15.413Z,100947.16
2022-11-29T22:33:43.564Z,100953.56
2022-11-29T22:36:13.290Z,100954.59
2022-11-29T22:38:42.457Z,100955.16
2022-11-29T22:41:11.506Z,100950.25
2022-11-29T22:43:41.338Z,100957.06
2022-11-29T22:46:11.403Z,100953.56
2022-11-29T22:48:40.714Z,100959.50
2022-11-29T22:51:09.887Z,100958.28
2022-11-29T22:53:39.455Z,100955.25
2022-11-29T22:56:11.354Z,100960.25
2022-11-29T22:58:39.353Z,100962.06
2022-11-29T23:01:09.174Z,100958.66
2022-11-29T23:03:39.048Z,100960.25
2022-11-29T23:06:08.240Z,100960.94
2022-11-29T23:08:36.936Z,100958.84
2022-11-29T23:11:06.328Z,100958.84
2022-11-29T23:13:37.324Z,100954.78
2022-11-29T23:16:07.194Z,100954.09
2022-11-29T23:18:36.355Z,100949.41
2022-11-29T23:21:05.796Z,100954.78
2022-11-29T23:23:34.319Z,100951.94
2022-11-29T23:26:02.558Z,100959.50
2022-11-29T23:28:30.796Z,100957.06
2022-11-29T23:31:00.601Z,100963.00
2022-11-29T23:33:28.834Z,100958.75
2022-11-29T23:36:00.212Z,100955.63
2022-11-29T23:38:27.956Z,100949.84
2022-11-29T23:40:55.378Z,100956.09
2022-11-29T23:43:23.989Z,100952.13
2022-11-29T23:45:51.466Z,100956.63
2022-11-29T23:48:20.693Z,100956.06
2022-11-29T23:50:47.971Z,100954.06
2022-11-29T23:53:18.508Z,100954.09
2022-11-29T23:55:46.003Z,100951.72
2022-11-29T23:58:13.715Z,100959.59
